createdAt,value
2022-12-06T00:02:00.785Z,52.47
2022-12-06T00:04:31.035Z,50.75
2022-12-06T00:07:00.312Z,49.95
2022-12-06T00:09:33.201Z,49.35
2022-12-06T00:12:02.495Z,52.25
2022-12-06T00:14:32.558Z,54.03
2022-12-06T00:17:02.029Z,53.67
2022-12-06T00:19:32.373Z,53.80
2022-12-06T00:22:01.591Z,50.78
2022-12-06T00:24:33.067Z,41.65
2022-12-06T00:27:02.701Z,49.65
2022-12-06T00:29:32.842Z,48.10
2022-12-06T00:32:03.641Z,45.78
2022-12-06T00:34:33.716Z,48.75
2022-12-06T00:37:03.129Z,44.65
2022-12-06T00:39:35.104Z,46.67
2022-12-06T00:42:04.497Z,46.70
2022-12-06T00:44:34.503Z,44.97
2022-12-06T00:47:04.138Z,47.90
2022-12-06T00:49:34.110Z,51.13
2022-12-06T00:52:03.552Z,45.63
2022-12-06T00:54:34.729Z,46.38
2022-12-06T00:57:04.202Z,46.38
2022-12-06T00:59:33.797Z,48.28
2022-12-06T01:02:03.337Z,43.38
2022-12-06T01:04:33.433Z,43.88
2022-12-06T01:07:02.779Z,47.53
2022-12-06T01:09:34.349Z,46.67
2022-12-06T01:12:03.736Z,44.83
2022-12-06T01:14:33.721Z,44.80
2022-12-06T01:17:03.654Z,44.63
2022-12-06T01:19:33.556Z,45.03
2022-12-06T01:22:02.915Z,44.92
2022-12-06T01:24:34.409Z,41.70
2022-12-06T01:27:03.719Z,40.30
2022-12-06T01:29:33.350Z,45.85
2022-12-06T01:32:02.911Z,43.70
2022-12-06T01:34:33.011Z,35.40
2022-12-06T01:37:02.529Z,40.40
2022-12-06T01:39:33.743Z,41.50
2022-12-06T01:42:03.117Z,42.30
2022-12-06T01:44:45.477Z,44.03
2022-12-06T01:47:20.227Z,42.83
2022-12-06T01:49:53.927Z,40.55
2022-12-06T01:52:26.454Z,42.65
2022-12-06T01:55:00.301Z,44.28
2022-12-06T01:57:30.885Z,40.83
2022-12-06T02:00:01.645Z,39.30
2022-12-06T02:02:31.864Z,42.60
2022-12-06T02:05:03.262Z,41.55
2022-12-06T02:10:05.668Z,37.40
2022-12-06T02:12:35.342Z,44.13
2022-12-06T02:15:05.629Z,42.42
2022-12-06T02:17:45.137Z,44.08
2022-12-06T02:20:28.930Z,42.28
2022-12-06T02:23:30.083Z,42.80
2022-12-06T02:26:30.320Z,38.28
2022-12-06T02:29:30.523Z,37.97
2022-12-06T02:32:05.001Z,38.15
2022-12-06T02:34:43.237Z,39.47
2022-12-06T02:37:19.051Z,37.55
2022-12-06T02:39:54.364Z,37.80
2022-12-06T02:42:27.895Z,38.20
2022-12-06T02:45:00.323Z,40.25
2022-12-06T02:47:36.252Z,38.03
2022-12-06T02:50:10.455Z,38.13
2022-12-06T02:52:44.649Z,39.47
2022-12-06T02:55:16.698Z,41.58
2022-12-06T02:57:48.910Z,41.80
2022-12-06T03:00:34.053Z,37.83
2022-12-06T03:03:17.872Z,37.13
2022-12-06T03:06:01.614Z,38.55
2022-12-06T03:08:43.178Z,36.17
2022-12-06T03:11:13.694Z,38.43
2022-12-06T03:13:54.685Z,38.00
2022-12-06T03:16:29.652Z,39.90
2022-12-06T03:19:06.767Z,43.08
2022-12-06T03:21:42.437Z,46.42
2022-12-06T03:24:16.192Z,43.22
2022-12-06T03:26:48.667Z,38.33
2022-12-06T03:29:22.650Z,39.22
2022-12-06T03:31:53.704Z,40.00
2022-12-06T03:34:29.516Z,39.95
2022-12-06T03:37:00.696Z,37.50
2022-12-06T03:39:37.632Z,41.08
2022-12-06T03:42:07.601Z,37.70
2022-12-06T03:44:38.011Z,38.38
2022-12-06T03:47:12.800Z,41.80
2022-12-06T03:49:48.768Z,36.00
2022-12-06T03:52:18.220Z,36.42
2022-12-06T03:54:48.038Z,35.63
2022-12-06T03:57:17.478Z,38.95
2022-12-06T03:59:47.597Z,37.57
2022-12-06T04:02:16.927Z,39.65
2022-12-06T04:04:49.574Z,37.13
2022-12-06T04:07:21.468Z,37.17
2022-12-06T04:09:56.460Z,38.30
2022-12-06T04:12:43.442Z,34.83
2022-12-06T04:15:13.349Z,36.08
2022-12-06T04:18:00.386Z,38.38
2022-12-06T04:20:53.392Z,35.65
2022-12-06T04:23:22.363Z,36.10
2022-12-06T04:25:52.343Z,39.97
2022-12-06T04:28:39.067Z,37.28
2022-12-06T04:31:26.421Z,37.42
2022-12-06T04:34:13.144Z,37.47
2022-12-06T04:37:03.341Z,38.22
2022-12-06T04:39:33.173Z,34.70
2022-12-06T04:42:21.035Z,35.47
2022-12-06T04:44:50.435Z,34.55
2022-12-06T04:47:20.384Z,36.50
2022-12-06T04:49:49.847Z,33.03
2022-12-06T04:52:21.230Z,31.40
2022-12-06T04:57:20.891Z,31.53
2022-12-06T04:59:51.444Z,32.63
2022-12-06T05:02:21.737Z,29.40
2022-12-06T05:04:51.258Z,29.60
2022-12-06T05:07:22.829Z,30.77
2022-12-06T05:09:52.080Z,29.23
2022-12-06T05:12:22.088Z,30.08
2022-12-06T05:14:51.369Z,27.98
2022-12-06T05:17:21.044Z,29.48
2022-12-06T05:19:50.584Z,28.65
2022-12-06T05:22:21.719Z,27.20
2022-12-06T05:24:52.025Z,27.38
2022-12-06T05:27:21.831Z,25.45
2022-12-06T05:29:51.209Z,28.98
2022-12-06T05:32:21.175Z,31.73
2022-12-06T05:34:50.508Z,26.98
2022-12-06T05:37:22.065Z,28.73
2022-12-06T05:39:51.331Z,28.60
2022-12-06T05:42:22.536Z,27.50
2022-12-06T05:47:21.459Z,26.38
2022-12-06T05:49:51.447Z,28.92
2022-12-06T05:52:22.604Z,28.10
2022-12-06T05:54:51.863Z,28.35
2022-12-06T05:57:21.876Z,29.50
2022-12-06T05:59:51.355Z,29.35
2022-12-06T06:02:21.454Z,29.80
2022-12-06T06:04:51.148Z,31.27
2022-12-06T06:07:22.583Z,31.53
2022-12-06T06:09:52.179Z,30.63
2022-12-06T06:12:21.834Z,29.40
2022-12-06T06:14:51.144Z,29.88
2022-12-06T06:17:21.264Z,31.33
2022-12-06T06:19:51.603Z,30.67
2022-12-06T06:22:23.499Z,29.92
2022-12-06T06:24:53.103Z,30.05
2022-12-06T06:27:23.447Z,32.15
2022-12-06T06:29:52.667Z,29.58
2022-12-06T06:32:23.123Z,30.88
2022-12-06T06:34:52.583Z,27.80
2022-12-06T06:37:24.667Z,29.40
2022-12-06T06:39:53.987Z,29.08
2022-12-06T06:42:24.149Z,27.90
2022-12-06T06:44:54.887Z,28.33
2022-12-06T06:49:53.807Z,27.08
2022-12-06T06:52:25.340Z,27.80
2022-12-06T06:54:54.644Z,26.00
2022-12-06T06:57:24.936Z,25.45
2022-12-06T06:59:54.375Z,25.48
2022-12-06T07:02:24.590Z,27.20
2022-12-06T07:04:54.067Z,25.92
2022-12-06T07:07:25.567Z,24.70
2022-12-06T07:09:54.845Z,24.52
2022-12-06T07:12:24.768Z,24.60
2022-12-06T07:14:54.099Z,22.73
2022-12-06T07:17:24.835Z,23.98
2022-12-06T07:19:54.089Z,24.63
2022-12-06T07:22:25.587Z,23.80
2022-12-06T07:24:54.832Z,24.60
2022-12-06T07:27:25.155Z,24.70
2022-12-06T07:29:54.407Z,24.67
2022-12-06T07:32:24.608Z,25.75
2022-12-06T07:34:54.085Z,26.20
2022-12-06T07:37:25.273Z,26.20
2022-12-06T07:39:54.709Z,24.40
2022-12-06T07:42:41.700Z,25.65
2022-12-06T07:45:13.411Z,25.20
2022-12-06T07:47:44.689Z,28.58
2022-12-06T07:50:18.367Z,26.45
2022-12-06T07:52:51.349Z,25.17
2022-12-06T07:55:21.218Z,24.95
2022-12-06T07:57:50.862Z,25.27
2022-12-06T08:00:20.942Z,24.50
2022-12-06T08:02:51.119Z,23.85
2022-12-06T08:05:20.571Z,24.65
2022-12-06T08:07:52.170Z,23.50
2022-12-06T08:10:21.507Z,24.15
2022-12-06T08:12:51.215Z,23.88
2022-12-06T08:15:20.471Z,22.92
2022-12-06T08:17:50.139Z,23.88
2022-12-06T08:20:19.740Z,23.90
2022-12-06T08:22:50.922Z,23.50
2022-12-06T08:25:20.345Z,22.30
2022-12-06T08:27:49.998Z,22.10
2022-12-06T08:30:19.547Z,21.40
2022-12-06T08:32:49.586Z,21.58
2022-12-06T08:35:19.141Z,19.67
2022-12-06T08:37:50.866Z,23.23
2022-12-06T08:42:50.135Z,19.02
2022-12-06T08:45:19.907Z,21.73
2022-12-06T08:47:49.860Z,20.90
2022-12-06T08:50:19.342Z,19.73
2022-12-06T08:52:49.015Z,19.30
2022-12-06T08:55:20.446Z,19.75
2022-12-06T08:57:50.669Z,22.00
2022-12-06T09:00:20.723Z,21.50
2022-12-06T09:02:50.727Z,24.23
2022-12-06T09:05:20.164Z,22.50
2022-12-06T09:07:50.443Z,23.93
2022-12-06T09:10:21.530Z,23.33
2022-12-06T09:12:51.668Z,25.50
2022-12-06T09:15:20.988Z,26.45
2022-12-06T09:17:50.868Z,25.33
2022-12-06T09:20:20.288Z,24.05
2022-12-06T09:22:50.471Z,24.63
2022-12-06T09:25:21.378Z,26.17
2022-12-06T09:27:51.459Z,26.40
2022-12-06T09:30:21.056Z,25.88
2022-12-06T09:32:50.910Z,24.52
2022-12-06T09:35:24.872Z,24.55
2022-12-06T09:37:55.783Z,26.17
2022-12-06T09:40:39.943Z,24.67
2022-12-06T09:43:29.361Z,22.50
2022-12-06T09:46:13.052Z,22.08
2022-12-06T09:49:07.152Z,21.60
2022-12-06T09:51:53.949Z,23.15
2022-12-06T09:54:36.438Z,24.23
2022-12-06T09:57:13.198Z,23.55
2022-12-06T09:59:53.730Z,25.02
2022-12-06T10:02:38.639Z,23.38
2022-12-06T10:05:24.562Z,24.48
2022-12-06T10:08:04.375Z,23.55
2022-12-06T10:10:44.137Z,23.57
2022-12-06T10:13:19.452Z,25.40
2022-12-06T10:16:05.126Z,23.83
2022-12-06T10:18:51.773Z,22.77
2022-12-06T10:21:32.756Z,23.60
2022-12-06T10:24:16.323Z,23.53
2022-12-06T10:26:51.577Z,23.13
2022-12-06T10:29:38.077Z,24.75
2022-12-06T10:32:18.537Z,22.02
2022-12-06T10:34:56.863Z,23.30
2022-12-06T10:37:40.828Z,23.55
2022-12-06T10:40:18.354Z,23.58
2022-12-06T10:42:53.330Z,23.63
2022-12-06T10:45:48.318Z,23.70
2022-12-06T10:48:22.379Z,22.88
2022-12-06T10:50:57.572Z,23.23
2022-12-06T10:53:31.959Z,22.08
2022-12-06T10:56:04.387Z,23.60
2022-12-06T10:58:41.072Z,23.17
2022-12-06T11:01:17.707Z,21.80
2022-12-06T11:04:01.075Z,24.85
2022-12-06T11:06:34.550Z,24.38
2022-12-06T11:09:14.455Z,23.95
2022-12-06T11:11:45.904Z,24.42
2022-12-06T11:14:23.893Z,26.10
2022-12-06T11:16:58.600Z,26.17
2022-12-06T11:19:35.308Z,26.08
2022-12-06T11:22:16.522Z,29.98
2022-12-06T11:24:52.684Z,28.17
2022-12-06T11:27:32.342Z,28.38
2022-12-06T11:30:05.517Z,30.48
2022-12-06T11:32:36.496Z,27.95
2022-12-06T11:35:07.965Z,28.75
2022-12-06T11:37:44.227Z,28.27
2022-12-06T11:40:23.865Z,29.55
2022-12-06T11:42:53.819Z,28.83
2022-12-06T11:45:27.987Z,25.83
2022-12-06T11:48:02.092Z,25.23
2022-12-06T11:50:34.663Z,27.20
2022-12-06T11:53:09.003Z,25.63
2022-12-06T11:55:45.348Z,28.08
2022-12-06T11:58:20.291Z,24.27
2022-12-06T12:01:02.037Z,27.45
2022-12-06T12:06:25.080Z,24.90
2022-12-06T12:08:58.715Z,25.60
2022-12-06T12:11:30.927Z,24.35
2022-12-06T12:14:03.252Z,27.70
2022-12-06T12:16:37.870Z,28.92
2022-12-06T12:19:30.091Z,27.77
2022-12-06T12:22:01.875Z,26.10
2022-12-06T12:27:49.078Z,27.20
2022-12-06T12:30:34.880Z,26.70
2022-12-06T12:33:23.220Z,25.33
2022-12-06T12:35:57.801Z,27.02
2022-12-06T12:38:38.979Z,26.13
2022-12-06T12:41:36.857Z,26.40
2022-12-06T12:44:36.400Z,24.45
2022-12-06T12:47:06.480Z,24.20
2022-12-06T12:49:39.258Z,23.83
2022-12-06T12:52:30.100Z,26.08
2022-12-06T12:55:03.246Z,24.00
2022-12-06T12:57:32.830Z,23.52
2022-12-06T13:00:02.469Z,23.83
2022-12-06T13:02:34.746Z,21.88
2022-12-06T13:05:32.057Z,20.60
2022-12-06T13:08:09.391Z,21.25
2022-12-06T13:10:41.596Z,23.15
2022-12-06T13:13:18.198Z,23.58
2022-12-06T13:15:49.842Z,23.33
2022-12-06T13:18:22.895Z,22.40
2022-12-06T13:20:55.730Z,22.77
2022-12-06T13:23:30.239Z,22.80
2022-12-06T13:26:08.100Z,21.23
2022-12-06T13:28:44.185Z,21.77
2022-12-06T13:31:18.583Z,20.25
2022-12-06T13:33:53.182Z,20.52
2022-12-06T13:36:25.455Z,23.30
2022-12-06T13:38:56.916Z,21.83
2022-12-06T13:42:14.717Z,19.75
2022-12-06T13:44:52.525Z,21.65
2022-12-06T13:47:40.743Z,21.63
2022-12-06T13:50:47.146Z,20.58
2022-12-06T13:53:17.189Z,20.52
2022-12-06T13:56:01.849Z,21.33
2022-12-06T13:58:59.687Z,23.10
2022-12-06T14:01:42.525Z,25.60
2022-12-06T14:09:44.299Z,25.40
2022-12-06T14:12:22.755Z,23.95
2022-12-06T14:15:00.567Z,27.52
2022-12-06T14:18:01.685Z,31.63
2022-12-06T14:20:30.393Z,28.17
2022-12-06T14:23:00.052Z,27.90
2022-12-06T14:25:31.733Z,25.85
2022-12-06T14:30:44.712Z,22.15
2022-12-06T14:33:20.997Z,24.38
2022-12-06T14:35:53.823Z,25.75
2022-12-06T14:38:25.984Z,25.85
2022-12-06T14:41:13.936Z,25.27
2022-12-06T14:43:48.895Z,27.48
2022-12-06T14:46:22.500Z,26.35
2022-12-06T14:49:20.904Z,26.83
2022-12-06T14:51:54.007Z,25.10
2022-12-06T14:54:35.036Z,27.88
2022-12-06T14:57:05.803Z,28.95
2022-12-06T15:00:13.435Z,30.33
2022-12-06T15:02:28.898Z,29.58
2022-12-06T15:04:59.232Z,30.13
2022-12-06T15:07:41.526Z,29.63
2022-12-06T15:10:20.767Z,27.15
2022-12-06T15:12:58.312Z,26.60
2022-12-06T15:15:45.345Z,27.67
2022-12-06T15:18:24.092Z,26.80
2022-12-06T15:20:53.894Z,26.25
2022-12-06T15:23:38.560Z,23.93
2022-12-06T15:26:09.720Z,24.35
2022-12-06T15:28:39.935Z,26.80
2022-12-06T15:31:19.375Z,26.35
2022-12-06T15:33:50.482Z,26.88
2022-12-06T15:36:22.147Z,31.40
2022-12-06T15:38:51.956Z,32.28
2022-12-06T15:41:25.350Z,31.38
2022-12-06T15:43:57.795Z,29.20
2022-12-06T15:46:30.327Z,26.20
2022-12-06T15:49:00.222Z,29.60
2022-12-06T15:51:30.876Z,27.40
2022-12-06T15:56:31.313Z,27.20
2022-12-06T16:01:41.913Z,24.73
2022-12-06T16:04:18.832Z,26.20
2022-12-06T16:06:48.691Z,26.80
2022-12-06T16:09:20.772Z,24.75
2022-12-06T16:11:50.183Z,27.70
2022-12-06T16:14:19.883Z,26.17
2022-12-06T16:16:50.725Z,25.95
2022-12-06T16:19:20.436Z,26.95
2022-12-06T16:21:54.729Z,25.45
2022-12-06T16:24:24.016Z,25.98
2022-12-06T16:26:53.304Z,27.63
2022-12-06T16:29:25.306Z,27.40
2022-12-06T16:31:56.545Z,28.40
2022-12-06T16:34:27.831Z,27.15
2022-12-06T16:37:00.058Z,27.30
2022-12-06T16:39:30.873Z,26.95
2022-12-06T16:42:00.359Z,26.90
2022-12-06T16:44:30.041Z,29.67
2022-12-06T16:47:00.968Z,26.88
2022-12-06T16:49:49.098Z,25.98
2022-12-06T16:52:19.405Z,25.67
2022-12-06T16:54:49.428Z,21.35
2022-12-06T16:57:19.791Z,25.50
2022-12-06T16:59:49.462Z,22.60
2022-12-06T17:02:28.096Z,21.85
2022-12-06T17:05:01.409Z,20.75
2022-12-06T17:07:31.146Z,22.98
2022-12-06T17:10:01.596Z,24.13
2022-12-06T17:12:30.917Z,25.90
2022-12-06T17:15:02.520Z,27.52
2022-12-06T17:17:33.582Z,27.50
2022-12-06T17:22:32.851Z,24.55
2022-12-06T17:25:02.682Z,29.33
2022-12-06T17:27:33.243Z,26.33
2022-12-06T17:30:03.131Z,29.73
2022-12-06T17:32:33.914Z,30.08
2022-12-06T17:35:04.024Z,28.77
2022-12-06T17:37:33.546Z,27.35
2022-12-06T17:40:04.709Z,30.90
2022-12-06T17:42:51.076Z,30.67
2022-12-06T17:45:24.788Z,30.80
2022-12-06T17:47:55.770Z,31.95
2022-12-06T17:50:25.479Z,32.47
2022-12-06T17:52:54.747Z,32.83
2022-12-06T17:55:24.369Z,31.10
2022-12-06T17:57:53.687Z,29.98
2022-12-06T18:00:24.128Z,26.77
2022-12-06T18:02:55.166Z,27.75
2022-12-06T18:05:24.896Z,23.38
2022-12-06T18:07:54.361Z,22.75
2022-12-06T18:10:24.868Z,21.83
2022-12-06T18:12:55.327Z,22.55
2022-12-06T18:15:44.128Z,21.88
2022-12-06T18:18:14.959Z,20.30
2022-12-06T18:20:45.144Z,22.02
2022-12-06T18:23:14.695Z,20.30
2022-12-06T18:25:44.983Z,20.98
2022-12-06T18:28:14.247Z,20.13
2022-12-06T18:30:44.235Z,19.52
2022-12-06T18:33:19.186Z,20.13
2022-12-06T18:35:53.044Z,20.42
2022-12-06T18:38:22.505Z,19.83
2022-12-06T18:40:52.684Z,20.77
2022-12-06T18:43:22.241Z,22.85
2022-12-06T18:45:59.654Z,22.27
2022-12-06T18:48:30.771Z,23.67
2022-12-06T18:51:00.956Z,24.20
2022-12-06T18:53:31.577Z,24.75
2022-12-06T18:56:01.214Z,24.05
2022-12-06T18:58:30.759Z,23.30
2022-12-06T19:01:00.660Z,23.48
2022-12-06T19:03:31.732Z,24.95
2022-12-06T19:06:08.923Z,22.70
2022-12-06T19:08:39.567Z,20.95
2022-12-06T19:13:53.447Z,20.52
2022-12-06T19:16:26.870Z,23.85
2022-12-06T19:18:59.768Z,22.38
2022-12-06T19:21:32.460Z,21.40
2022-12-06T19:24:02.127Z,20.27
2022-12-06T19:26:32.664Z,20.95
2022-12-06T19:29:02.074Z,21.60
2022-12-06T19:31:31.940Z,20.77
2022-12-06T19:34:02.680Z,19.95
2022-12-06T19:36:33.605Z,20.73
2022-12-06T19:39:06.289Z,21.77
2022-12-06T19:41:58.012Z,20.58
2022-12-06T19:44:27.040Z,20.45
2022-12-06T19:46:57.650Z,22.27
2022-12-06T19:49:29.654Z,20.23
2022-12-06T19:51:59.366Z,20.60
2022-12-06T19:54:30.384Z,19.70
2022-12-06T19:57:01.473Z,18.50
2022-12-06T19:59:32.799Z,19.05
2022-12-06T20:02:03.143Z,18.60
2022-12-06T20:04:35.903Z,19.40
2022-12-06T20:07:07.416Z,19.45
2022-12-06T20:09:37.097Z,18.63
2022-12-06T20:12:07.848Z,20.55
2022-12-06T20:14:40.415Z,18.27
2022-12-06T20:17:11.860Z,18.67
2022-12-06T20:19:46.395Z,18.75
2022-12-06T20:22:17.476Z,17.48
2022-12-06T20:24:46.784Z,18.52
2022-12-06T20:27:16.590Z,16.88
2022-12-06T20:29:46.031Z,17.45
2022-12-06T20:32:16.033Z,17.77
2022-12-06T20:34:46.776Z,17.08
2022-12-06T20:37:16.752Z,16.38
2022-12-06T20:39:46.257Z,15.98
2022-12-06T20:42:16.133Z,18.98
2022-12-06T20:44:45.791Z,14.90
2022-12-06T20:47:16.212Z,18.30
2022-12-06T20:49:47.469Z,16.00
2022-12-06T20:52:17.479Z,16.88
2022-12-06T20:54:46.817Z,17.17
2022-12-06T20:57:16.994Z,17.13
2022-12-06T20:59:46.348Z,15.35
2022-12-06T21:02:16.010Z,16.00
2022-12-06T21:04:47.235Z,16.02
2022-12-06T21:07:17.413Z,14.70
2022-12-06T21:09:46.658Z,15.30
2022-12-06T21:12:16.324Z,15.82
2022-12-06T21:14:45.760Z,16.63
2022-12-06T21:17:16.305Z,15.60
2022-12-06T21:19:47.331Z,14.95
2022-12-06T21:22:16.951Z,14.80
2022-12-06T21:24:47.043Z,15.18
2022-12-06T21:27:17.008Z,15.98
2022-12-06T21:29:48.561Z,15.60
2022-12-06T21:32:18.666Z,15.63
2022-12-06T21:34:49.535Z,15.48
2022-12-06T21:37:19.279Z,15.75
2022-12-06T21:39:48.841Z,14.90
2022-12-06T21:42:21.329Z,18.30
2022-12-06T21:44:51.276Z,17.27
2022-12-06T21:47:21.246Z,17.95
2022-12-06T21:49:52.192Z,15.75
2022-12-06T21:52:22.012Z,15.52
2022-12-06T21:54:51.375Z,16.45
2022-12-06T21:57:21.362Z,17.67
2022-12-06T21:59:50.649Z,16.30
2022-12-06T22:02:20.576Z,17.05
2022-12-06T22:04:51.366Z,18.02
2022-12-06T22:07:21.531Z,15.80
2022-12-06T22:09:50.905Z,17.92
2022-12-06T22:12:20.874Z,19.10
2022-12-06T22:14:50.375Z,15.30
2022-12-06T22:17:20.442Z,15.07
2022-12-06T22:19:51.357Z,17.20
2022-12-06T22:22:21.087Z,15.38
2022-12-06T22:24:50.338Z,17.98
2022-12-06T22:27:20.343Z,16.13
2022-12-06T22:29:50.016Z,17.08
2022-12-06T22:32:19.879Z,16.08
2022-12-06T22:34:50.640Z,16.35
2022-12-06T22:37:25.380Z,15.70
2022-12-06T22:39:57.619Z,16.35
2022-12-06T22:42:27.726Z,15.40
2022-12-06T22:44:57.196Z,16.70
2022-12-06T22:47:27.430Z,16.40
2022-12-06T22:49:58.560Z,16.33
2022-12-06T22:52:28.864Z,14.82
2022-12-06T22:54:58.440Z,15.15
2022-12-06T22:57:28.420Z,15.38
2022-12-06T22:59:57.942Z,14.52
2022-12-06T23:02:27.739Z,14.38
2022-12-06T23:04:58.996Z,15.15
2022-12-06T23:07:29.002Z,14.23
2022-12-06T23:09:59.334Z,16.92
2022-12-06T23:12:29.856Z,15.43
2022-12-06T23:14:59.551Z,14.82
2022-12-06T23:17:30.897Z,15.90
2022-12-06T23:20:02.911Z,15.27
2022-12-06T23:22:34.222Z,14.32
2022-12-06T23:25:03.531Z,14.48
2022-12-06T23:27:33.163Z,13.90
2022-12-06T23:30:02.806Z,15.25
2022-12-06T23:32:32.725Z,14.98
2022-12-06T23:35:03.561Z,14.40
2022-12-06T23:37:33.634Z,13.85
2022-12-06T23:40:03.345Z,12.65
2022-12-06T23:42:33.079Z,15.07
2022-12-06T23:45:02.335Z,14.40
2022-12-06T23:47:31.947Z,14.90
2022-12-06T23:50:02.826Z,13.35
2022-12-06T23:52:33.083Z,13.63
2022-12-06T23:55:02.333Z,12.93
2022-12-06T23:57:32.492Z,14.23
